Time;durP1;ratioP1;P1;durP2;ratioP2;P2;SDS_P1;SDS_P2;PMS_P1;PMS_P2;Temp;Humidity;BMP_temperature;BMP_pressure;BME280_temperature;BME280_humidity;BME280_pressure;Samples;Min_cycle;Max_cycle;Signal;HPM_P1;HPM_P2
2023/08/14 00:02:15;;;;;;;3.67;1.63;;;;;;;21.04;100.00;96369.63;5030121;28;20208;-73
2023/08/14 00:04:41;;;;;;;4.38;1.90;;;;;;;21.01;100.00;96378.16;5029341;28;20234;-73
2023/08/14 00:07:08;;;;;;;5.20;2.17;;;;;;;21.12;100.00;96370.09;5029863;28;20802;-73
2023/08/14 00:09:35;;;;;;;2.17;1.35;;;;;;;21.19;100.00;96364.56;5029237;28;20212;-73
2023/08/14 00:12:02;;;;;;;2.38;1.63;;;;;;;21.34;100.00;96363.00;5029834;28;20256;-73
2023/08/14 00:14:30;;;;;;;3.55;2.00;;;;;;;21.42;100.00;96357.22;5028976;28;21187;-73
2023/08/14 00:16:57;;;;;;;2.78;2.05;;;;;;;21.26;100.00;96358.03;5029485;28;20206;-73
2023/08/14 00:19:23;;;;;;;2.90;2.10;;;;;;;21.24;100.00;96356.63;5028984;28;20642;-73
2023/08/14 00:21:50;;;;;;;4.30;2.10;;;;;;;21.26;100.00;96355.34;5029726;28;20202;-73
2023/08/14 00:24:16;;;;;;;5.82;1.90;;;;;;;21.17;100.00;96342.56;5029122;28;20233;-73
2023/08/14 00:26:43;;;;;;;2.38;1.40;;;;;;;21.20;100.00;96347.44;5029017;28;20206;-73
2023/08/14 00:29:09;;;;;;;2.45;1.48;;;;;;;21.12;100.00;96345.16;5029766;28;20202;-73
2023/08/14 00:31:37;;;;;;;3.45;1.95;;;;;;;21.29;100.00;96329.94;5029305;28;20581;-73
2023/08/14 00:34:04;;;;;;;3.17;1.80;;;;;;;21.05;100.00;96328.38;5029050;28;20225;-73
2023/08/14 00:36:30;;;;;;;2.60;1.90;;;;;;;21.10;100.00;96329.28;5029176;28;20209;-74
2023/08/14 00:38:57;;;;;;;4.80;2.30;;;;;;;21.07;100.00;96331.66;5029144;28;20202;-72
2023/08/14 00:41:23;;;;;;;3.72;1.90;;;;;;;20.98;100.00;96323.19;5028892;28;20213;-73
2023/08/14 00:43:51;;;;;;;3.33;1.70;;;;;;;21.01;100.00;96320.00;5029166;28;20249;-73
2023/08/14 00:46:19;;;;;;;4.60;1.85;;;;;;;21.12;100.00;96321.84;5029254;28;20224;-72
2023/08/14 00:48:47;;;;;;;2.33;1.70;;;;;;;21.07;100.00;96318.25;5028833;28;20206;-73
2023/08/14 00:51:14;;;;;;;2.75;1.80;;;;;;;20.93;100.00;96323.06;5029203;28;20200;-72
2023/08/14 00:53:40;;;;;;;1.98;1.42;;;;;;;20.94;100.00;96321.22;5027659;28;20240;-72
2023/08/14 00:56:07;;;;;;;4.05;2.35;;;;;;;20.92;100.00;96332.16;5028836;28;20198;-73
2023/08/14 00:58:34;;;;;;;4.10;2.33;;;;;;;20.89;100.00;96331.84;5027899;28;20202;-73
2023/08/14 01:01:01;;;;;;;2.17;1.50;;;;;;;20.91;100.00;96335.91;5028378;28;20217;-73
2023/08/14 01:03:28;;;;;;;1.42;1.15;;;;;;;20.85;100.00;96331.50;5028023;28;20216;-73
2023/08/14 01:05:56;;;;;;;2.88;2.05;;;;;;;20.93;100.00;96331.13;5028688;28;20233;-73
2023/08/14 01:08:23;;;;;;;3.47;1.45;;;;;;;20.81;100.00;96328.72;5028603;28;20197;-73
2023/08/14 01:11:01;;;;;;;3.17;2.08;;;;;;;21.11;100.00;96335.50;5028557;28;20220;-72
2023/08/14 01:13:36;;;;;;;2.75;1.60;;;;;;;21.09;100.00;96337.56;5028072;28;20229;-74
2023/08/14 01:16:07;;;;;;;2.75;1.60;;;;;;;20.98;100.00;96341.94;5028259;28;20664;-73
2023/08/14 01:18:34;;;;;;;1.88;1.52;;;;;;;20.93;100.00;96344.50;5028442;28;20673;-73
2023/08/14 01:21:13;;;;;;;2.33;1.55;;;;;;;21.13;100.00;96350.28;5028379;28;20201;-74
2023/08/14 01:23:50;;;;;;;2.67;2.00;;;;;;;21.14;100.00;96361.78;5027831;28;20249;-72
2023/08/14 01:26:18;;;;;;;2.72;1.42;;;;;;;21.04;100.00;96367.78;5028041;28;20201;-73
2023/08/14 01:28:45;;;;;;;3.20;1.58;;;;;;;20.95;100.00;96373.75;5028347;28;20205;-73
2023/08/14 01:31:12;;;;;;;3.90;1.75;;;;;;;20.93;100.00;96365.94;5028008;28;20202;-73
2023/08/14 01:33:38;;;;;;;4.43;2.00;;;;;;;20.99;100.00;96366.84;5027707;28;20589;-73
2023/08/14 01:36:13;;;;;;;2.90;1.88;;;;;;;21.12;100.00;96366.59;5028120;28;20737;-73
2023/08/14 01:38:50;;;;;;;4.20;2.47;;;;;;;21.30;100.00;96372.56;5028244;28;20231;-74
2023/08/14 01:41:26;;;;;;;2.65;1.95;;;;;;;21.20;100.00;96350.13;5028045;28;20204;-73
2023/08/14 01:43:57;;;;;;;2.65;1.85;;;;;;;21.23;100.00;96350.47;5027844;28;20221;-73
2023/08/14 01:46:26;;;;;;;2.90;1.70;;;;;;;21.19;100.00;96341.25;5028443;28;20293;-73
2023/08/14 01:48:55;;;;;;;6.53;2.28;;;;;;;21.25;100.00;96337.63;5027841;28;20661;-73
2023/08/14 01:51:23;;;;;;;4.13;2.40;;;;;;;21.08;100.00;96326.06;5028299;28;20194;-73
2023/08/14 01:53:50;;;;;;;3.35;2.25;;;;;;;20.99;100.00;96322.13;5027174;28;20225;-73
2023/08/14 01:56:16;;;;;;;3.17;1.95;;;;;;;21.17;100.00;96321.13;5028035;28;20193;-73
2023/08/14 01:58:44;;;;;;;7.38;2.05;;;;;;;21.38;100.00;96310.50;5027676;28;20211;-73
2023/08/14 02:01:11;;;;;;;3.40;1.80;;;;;;;21.07;100.00;96302.97;5028191;28;20546;-73
2023/08/14 02:03:38;;;;;;;3.10;1.73;;;;;;;21.23;100.00;96304.91;5027072;28;20226;-73
2023/08/14 02:06:04;;;;;;;4.40;2.00;;;;;;;21.29;100.00;96305.78;5027352;28;20201;-73
2023/08/14 02:08:31;;;;;;;4.32;2.38;;;;;;;21.37;100.00;96313.44;5027671;28;20205;-73
2023/08/14 02:10:57;;;;;;;4.18;2.10;;;;;;;21.37;100.00;96310.75;5027490;28;20653;-73
2023/08/14 02:13:24;;;;;;;6.90;2.25;;;;;;;21.36;100.00;96301.91;5027925;28;20365;-73
2023/08/14 02:15:52;;;;;;;3.78;2.00;;;;;;;21.50;100.00;96287.97;5027175;28;20324;-74
2023/08/14 02:18:18;;;;;;;4.70;2.10;;;;;;;21.19;100.00;96282.28;5027853;28;20205;-73
2023/08/14 02:20:46;;;;;;;8.25;2.17;;;;;;;21.16;100.00;96285.47;5027297;28;20206;-73
2023/08/14 02:23:12;;;;;;;3.00;2.00;;;;;;;21.08;100.00;96283.19;5027672;28;20245;-74
2023/08/14 02:25:40;;;;;;;4.70;1.70;;;;;;;21.22;100.00;96278.31;5028341;28;20213;-72
2023/08/14 02:28:07;;;;;;;3.97;1.73;;;;;;;20.89;100.00;96273.72;5029935;28;20230;-72
2023/08/14 02:30:36;;;;;;;3.47;2.10;;;;;;;21.15;100.00;96286.50;5030272;28;20375;-72
2023/08/14 02:33:05;;;;;;;4.10;2.42;;;;;;;21.30;100.00;96294.81;5029204;28;20206;-72
2023/08/14 02:35:31;;;;;;;4.78;2.25;;;;;;;21.19;100.00;96289.53;5029259;28;20198;-72
2023/08/14 02:37:58;;;;;;;3.08;2.15;;;;;;;21.20;100.00;96297.31;5029281;28;20292;-72
2023/08/14 02:40:24;;;;;;;4.45;2.13;;;;;;;21.12;100.00;96284.31;5030312;28;20304;-72
2023/08/14 02:42:51;;;;;;;3.00;2.05;;;;;;;21.11;100.00;96296.09;5029116;28;20202;-72
2023/08/14 02:45:18;;;;;;;3.60;2.00;;;;;;;21.01;100.00;96298.56;5030384;28;20297;-72
2023/08/14 02:47:44;;;;;;;5.05;2.35;;;;;;;20.84;100.00;96296.91;5028342;28;20206;-72
2023/08/14 02:50:12;;;;;;;4.05;2.40;;;;;;;21.10;100.00;96297.13;5029778;28;21209;-72
2023/08/14 02:52:39;;;;;;;2.58;1.85;;;;;;;20.91;100.00;96287.69;5029701;28;20206;-72
2023/08/14 02:55:06;;;;;;;3.25;1.63;;;;;;;20.79;100.00;96278.06;5028512;28;20228;-72
2023/08/14 02:57:32;;;;;;;3.50;2.22;;;;;;;20.83;100.00;96281.09;5029677;28;20202;-72
2023/08/14 02:59:59;;;;;;;3.03;2.00;;;;;;;20.89;100.00;96305.06;5029563;28;20252;-72
2023/08/14 03:02:25;;;;;;;5.25;2.17;;;;;;;20.76;100.00;96331.28;5029255;28;20198;-71
2023/08/14 03:04:52;;;;;;;5.20;2.92;;;;;;;20.58;100.00;96342.97;5027123;28;20230;-72
2023/08/14 03:07:20;;;;;;;6.03;2.30;;;;;;;20.78;100.00;96335.38;5027535;28;20202;-72
2023/08/14 03:09:46;;;;;;;4.03;2.50;;;;;;;20.73;100.00;96326.41;5026814;28;20212;-72
2023/08/14 03:12:13;;;;;;;5.10;2.00;;;;;;;20.82;100.00;96314.28;5027118;28;20209;-72
2023/08/14 03:14:39;;;;;;;4.70;2.40;;;;;;;20.89;100.00;96311.22;5026796;28;20230;-72
2023/08/14 03:17:06;;;;;;;4.97;2.45;;;;;;;20.87;100.00;96294.59;5026442;28;20723;-72
2023/08/14 03:19:33;;;;;;;4.68;2.70;;;;;;;21.01;100.00;96293.22;5030717;28;20296;-72
2023/08/14 03:21:59;;;;;;;6.82;3.60;;;;;;;21.08;100.00;96299.25;5030530;28;20202;-72
2023/08/14 03:24:27;;;;;;;5.13;2.67;;;;;;;21.26;100.00;96291.00;5030615;28;20220;-72
2023/08/14 03:26:53;;;;;;;5.72;2.88;;;;;;;21.13;100.00;96288.63;5030187;28;20293;-72
2023/08/14 03:29:20;;;;;;;6.75;3.03;;;;;;;21.04;100.00;96286.56;5030660;28;20284;-72
2023/08/14 03:31:47;;;;;;;9.88;3.58;;;;;;;21.06;100.00;96289.84;5030289;28;20221;-72
2023/08/14 03:34:13;;;;;;;6.15;3.30;;;;;;;21.13;100.00;96283.28;5030062;28;20225;-72
2023/08/14 03:36:40;;;;;;;6.00;3.15;;;;;;;21.09;100.00;96284.81;5030485;28;20563;-72
2023/08/14 03:39:06;;;;;;;5.45;2.80;;;;;;;21.12;100.00;96292.34;5029803;28;20573;-72
2023/08/14 03:41:34;;;;;;;4.88;3.13;;;;;;;21.22;100.00;96302.44;5030194;28;20202;-72
2023/08/14 03:44:01;;;;;;;7.65;3.55;;;;;;;21.12;100.00;96299.59;5029498;28;20224;-72
2023/08/14 03:46:27;;;;;;;7.05;3.47;;;;;;;21.21;100.00;96306.19;5030691;28;20205;-72
2023/08/14 03:48:54;;;;;;;7.00;3.25;;;;;;;21.22;100.00;96305.94;5029774;28;20688;-72
2023/08/14 03:51:20;;;;;;;5.43;2.65;;;;;;;21.22;100.00;96297.06;5030456;28;20202;-72
2023/08/14 03:53:47;;;;;;;5.05;2.58;;;;;;;21.21;100.00;96290.91;5029440;28;20232;-72
2023/08/14 03:56:13;;;;;;;4.68;2.55;;;;;;;21.08;100.00;96293.91;5029912;28;20662;-72
2023/08/14 03:58:41;;;;;;;4.97;2.97;;;;;;;21.18;100.00;96277.19;5029858;28;20209;-72
2023/08/14 04:01:08;;;;;;;7.18;4.00;;;;;;;21.00;100.00;96270.19;5029474;28;20201;-72
2023/08/14 04:03:34;;;;;;;7.85;2.95;;;;;;;21.09;100.00;96275.94;5029750;28;20227;-72
2023/08/14 04:06:01;;;;;;;6.18;3.55;;;;;;;21.14;100.00;96281.41;5029584;28;20204;-72
2023/08/14 04:08:28;;;;;;;5.90;2.97;;;;;;;21.02;100.00;96273.41;5030119;28;20202;-72
2023/08/14 04:10:57;;;;;;;5.55;3.10;;;;;;;21.09;100.00;96275.94;5029256;28;20210;-72
2023/08/14 04:13:23;;;;;;;8.23;3.13;;;;;;;21.08;100.00;96282.38;5029631;28;20249;-72
2023/08/14 04:15:51;;;;;;;4.57;3.00;;;;;;;21.10;100.00;96270.34;5029291;28;20205;-72
2023/08/14 04:18:26;;;;;;;4.15;2.80;;;;;;;21.08;100.00;96267.09;5029614;28;20279;-72
2023/08/14 04:20:52;;;;;;;6.30;2.70;;;;;;;21.09;100.00;96266.06;5029311;28;20581;-72
2023/08/14 04:23:19;;;;;;;4.03;2.33;;;;;;;21.09;100.00;96267.91;5029130;28;20224;-72
2023/08/14 04:25:45;;;;;;;4.53;2.70;;;;;;;21.09;100.00;96274.09;5029339;28;20208;-72
2023/08/14 04:28:12;;;;;;;3.65;2.50;;;;;;;21.04;100.00;96268.63;5029670;28;20202;-72
2023/08/14 04:30:38;;;;;;;6.35;2.40;;;;;;;21.02;100.00;96276.09;5029229;28;20571;-72
2023/08/14 04:33:06;;;;;;;4.70;2.70;;;;;;;21.25;100.00;96285.91;5029239;28;20198;-72
2023/08/14 04:35:33;;;;;;;3.88;2.58;;;;;;;21.11;100.00;96279.22;5029199;28;20568;-72
2023/08/14 04:37:59;;;;;;;3.85;2.85;;;;;;;21.07;100.00;96276.19;5029137;28;20208;-72
2023/08/14 04:40:26;;;;;;;8.90;2.47;;;;;;;21.06;100.00;96279.13;5028847;28;20205;-72
2023/08/14 04:42:54;;;;;;;7.10;2.85;;;;;;;21.22;100.00;96289.88;5029134;28;21040;-72
2023/08/14 04:45:20;;;;;;;4.28;2.40;;;;;;;21.08;100.00;96285.06;5028937;28;20205;-72
2023/08/14 04:47:47;;;;;;;3.63;2.20;;;;;;;21.15;100.00;96291.06;5028851;28;20699;-72
2023/08/14 04:50:15;;;;;;;3.88;2.08;;;;;;;21.33;100.00;96291.66;5029881;28;20205;-72
2023/08/14 04:52:41;;;;;;;3.83;2.67;;;;;;;21.28;100.00;96290.75;5031856;28;20573;-73
2023/08/14 04:55:08;;;;;;;5.53;2.33;;;;;;;21.30;100.00;96292.16;5031623;28;20249;-72
2023/08/14 04:57:35;;;;;;;10.73;2.42;;;;;;;21.21;100.00;96277.50;5032148;28;20657;-72
2023/08/14 05:00:01;;;;;;;3.58;2.70;;;;;;;21.29;100.00;96279.78;5031542;28;20202;-73
2023/08/14 05:02:29;;;;;;;9.60;2.88;;;;;;;21.49;100.00;96278.25;5031831;28;20213;-72
2023/08/14 05:04:56;;;;;;;4.00;2.75;;;;;;;21.40;100.00;96273.56;5031512;28;20237;-72
2023/08/14 05:07:24;;;;;;;5.22;2.65;;;;;;;21.57;100.00;96291.28;5030449;28;20683;-72
2023/08/14 05:09:50;;;;;;;3.97;2.45;;;;;;;21.34;100.00;96292.47;5029831;28;20654;-72
2023/08/14 05:12:17;;;;;;;5.68;2.92;;;;;;;21.08;100.00;96293.91;5030408;28;20208;-72
2023/08/14 05:14:43;;;;;;;7.13;2.05;;;;;;;21.31;100.00;96298.31;5029409;28;20233;-72
2023/08/14 05:17:10;;;;;;;4.30;1.95;;;;;;;21.34;100.00;96303.22;5029760;28;20202;-71
2023/08/14 05:19:36;;;;;;;3.45;2.30;;;;;;;21.57;100.00;96303.91;5029975;28;20237;-72
2023/08/14 05:22:03;;;;;;;3.70;2.20;;;;;;;21.57;100.00;96303.91;5029561;28;20289;-73
2023/08/14 05:24:31;;;;;;;6.60;2.38;;;;;;;21.85;100.00;96309.19;5030088;28;20218;-72
2023/08/14 05:26:57;;;;;;;2.97;1.77;;;;;;;21.86;100.00;96308.16;5029686;28;20569;-73
2023/08/14 05:29:24;;;;;;;3.05;1.63;;;;;;;22.03;100.00;96303.56;5029136;28;20194;-72
2023/08/14 05:31:50;;;;;;;4.50;2.55;;;;;;;22.16;100.00;96298.66;5029815;28;20217;-72
2023/08/14 05:34:17;;;;;;;4.88;2.95;;;;;;;22.21;100.00;96309.47;5028682;28;20252;-72
2023/08/14 05:36:43;;;;;;;3.30;2.10;;;;;;;22.25;100.00;96302.53;5029095;28;20700;-72
2023/08/14 05:39:10;;;;;;;3.10;2.00;;;;;;;22.36;100.00;96299.78;5029206;28;20201;-73
2023/08/14 05:41:38;;;;;;;4.13;2.63;;;;;;;22.46;100.00;96297.22;5028696;28;20205;-72
2023/08/14 05:44:05;;;;;;;4.32;2.40;;;;;;;22.46;100.00;96307.97;5028577;28;20224;-72
2023/08/14 05:46:31;;;;;;;2.72;1.77;;;;;;;22.46;100.00;96305.28;5028945;28;20209;-72
2023/08/14 05:48:58;;;;;;;4.80;2.63;;;;;;;22.58;100.00;96306.00;5028863;28;20208;-73
2023/08/14 05:51:25;;;;;;;4.47;2.60;;;;;;;22.68;100.00;96301.56;5028987;28;20198;-72
2023/08/14 05:53:51;;;;;;;3.45;2.20;;;;;;;22.72;100.00;96307.22;5028889;28;20222;-72
2023/08/14 05:56:18;;;;;;;4.38;2.55;;;;;;;22.68;100.00;96311.47;5028503;28;20202;-71
2023/08/14 05:58:45;;;;;;;3.80;2.03;;;;;;;22.84;100.00;96307.94;5027777;28;20569;-72
2023/08/14 06:01:12;;;;;;;4.60;2.47;;;;;;;22.80;100.00;96317.56;5027752;28;20204;-73
2023/08/14 06:03:39;;;;;;;4.20;2.15;;;;;;;22.73;100.00;96316.94;5028535;28;20245;-73
2023/08/14 06:06:06;;;;;;;5.38;1.90;;;;;;;22.86;100.00;96322.75;5028925;28;20256;-72
2023/08/14 06:08:32;;;;;;;4.72;2.20;;;;;;;22.87;100.00;96318.19;5027734;28;20206;-73
2023/08/14 06:10:59;;;;;;;4.13;2.50;;;;;;;22.91;100.00;96314.75;5028247;28;20205;-72
2023/08/14 06:13:25;;;;;;;6.70;2.78;;;;;;;23.02;100.00;96326.47;5027611;28;20606;-73
2023/08/14 06:15:53;;;;;;;5.00;2.72;;;;;;;23.27;100.00;96324.03;5027689;28;20222;-71
2023/08/14 06:18:20;;;;;;;3.53;2.58;;;;;;;23.22;100.00;96322.13;5028034;28;20213;-72
2023/08/14 06:20:46;;;;;;;4.70;2.58;;;;;;;23.16;100.00;96327.69;5028689;28;20381;-72
2023/08/14 06:23:13;;;;;;;7.15;2.30;;;;;;;23.25;100.00;96332.34;5027414;28;20685;-72
2023/08/14 06:25:39;;;;;;;3.63;1.98;;;;;;;23.25;100.00;96332.34;5027787;28;20205;-72
2023/08/14 06:28:06;;;;;;;6.00;2.10;;;;;;;23.40;100.00;96330.63;5027746;28;20205;-73
2023/08/14 06:30:33;;;;;;;3.30;2.28;;;;;;;23.36;100.00;96315.28;5027776;28;20206;-72
2023/08/14 06:33:01;;;;;;;3.35;2.10;;;;;;;23.53;100.00;96321.34;5027892;28;20209;-72
2023/08/14 06:35:28;;;;;;;3.40;2.15;;;;;;;23.50;100.00;96308.41;5027766;28;20222;-72
2023/08/14 06:37:54;;;;;;;23.13;3.35;;;;;;;23.62;100.00;96307.16;5028385;28;20206;-74
2023/08/14 06:40:21;;;;;;;5.30;2.75;;;;;;;23.59;100.00;96299.59;5027063;28;20581;-73
2023/08/14 06:42:47;;;;;;;3.60;2.22;;;;;;;23.65;100.00;96301.28;5027100;28;20213;-73
2023/08/14 06:45:15;;;;;;;3.22;2.15;;;;;;;23.78;100.00;96300.88;5026589;28;20222;-73
2023/08/14 06:47:45;;;;;;;5.18;1.85;;;;;;;24.04;100.00;96311.59;5027132;28;20229;-73
2023/08/14 06:50:13;;;;;;;4.43;2.28;;;;;;;23.91;100.00;96310.41;5027220;28;20252;-73
2023/08/14 06:52:40;;;;;;;3.92;1.88;;;;;;;23.77;100.00;96304.63;5027067;28;20653;-72
2023/08/14 06:55:07;;;;;;;3.65;1.95;;;;;;;23.70;100.00;96304.06;5030276;28;20642;-72
2023/08/14 06:57:33;;;;;;;3.15;1.77;;;;;;;23.60;100.00;96297.72;5024091;28;20209;-72
2023/08/14 07:00:05;;;;;;;4.80;2.33;;;;;;;23.87;100.00;96306.59;5018355;28;20198;-72
2023/08/14 07:02:31;;;;;;;7.10;2.45;;;;;;;23.68;100.00;96306.16;5029165;28;20202;-72
2023/08/14 07:04:58;;;;;;;2.38;1.63;;;;;;;23.78;100.00;96302.75;5030215;28;20731;-72
2023/08/14 07:07:26;;;;;;;3.35;2.13;;;;;;;23.99;100.00;96303.47;5030810;28;20202;-72
2023/08/14 07:09:52;;;;;;;3.28;1.90;;;;;;;23.53;100.00;96306.00;5030583;28;20198;-72
2023/08/14 07:12:19;;;;;;;3.80;2.05;;;;;;;24.02;100.00;96312.94;5030490;28;20205;-72
2023/08/14 07:14:45;;;;;;;3.95;2.45;;;;;;;23.73;100.00;96303.53;5029913;28;20693;-72
2023/08/14 07:17:12;;;;;;;3.88;2.35;;;;;;;24.25;100.00;96290.97;5030810;28;20237;-72
2023/08/14 07:19:38;;;;;;;3.90;1.77;;;;;;;24.37;100.00;96295.09;5029413;28;20202;-72
2023/08/14 07:22:05;;;;;;;3.85;1.77;;;;;;;24.38;100.00;96293.22;5018552;28;20589;-72
2023/08/14 07:24:33;;;;;;;1.95;1.40;;;;;;;24.53;100.00;96296.84;5020701;28;20822;-72
2023/08/14 07:27:00;;;;;;;3.13;1.90;;;;;;;24.58;100.00;96292.28;5025302;28;20198;-72
2023/08/14 07:29:26;;;;;;;3.60;2.22;;;;;;;24.26;100.00;96297.97;5017712;28;20236;-72
2023/08/14 07:31:53;;;;;;;2.92;1.45;;;;;;;24.26;100.00;96303.38;5024910;28;20228;-72
2023/08/14 07:34:19;;;;;;;2.40;1.60;;;;;;;24.14;100.00;96302.75;5029863;28;20654;-74
2023/08/14 07:36:46;;;;;;;1.90;1.33;;;;;;;24.19;100.00;96297.41;5029667;28;20226;-73
2023/08/14 07:39:12;;;;;;;2.35;1.48;;;;;;;24.19;100.00;96297.41;5031184;28;20208;-74
2023/08/14 07:41:40;;;;;;;1.65;1.25;;;;;;;24.37;100.00;96294.28;5030688;28;20205;-74
2023/08/14 07:44:07;;;;;;;1.80;1.30;;;;;;;24.49;100.00;96298.44;5025171;28;20217;-73
2023/08/14 07:46:33;;;;;;;1.52;1.17;;;;;;;24.56;100.00;96291.72;5018307;28;20198;-74
2023/08/14 07:49:00;;;;;;;2.15;1.58;;;;;;;24.82;100.00;96296.16;5023795;28;20549;-74
2023/08/14 07:51:26;;;;;;;2.47;1.77;;;;;;;24.85;100.00;96295.63;5017820;28;20328;-73
2023/08/14 07:53:54;;;;;;;3.10;2.03;;;;;;;25.15;100.00;96298.44;5022245;28;20252;-73
2023/08/14 07:56:20;;;;;;;1.80;1.48;;;;;;;25.23;100.00;96297.94;5030319;28;20222;-73
2023/08/14 07:58:48;;;;;;;2.97;2.00;;;;;;;25.43;100.00;96300.66;5032122;28;20206;-73
2023/08/14 08:01:14;;;;;;;2.05;1.30;;;;;;;25.22;100.00;96294.44;5030635;28;20217;-74
2023/08/14 08:03:41;;;;;;;2.95;1.75;;;;;;;25.23;100.00;96295.25;5029389;28;20222;-74
2023/08/14 08:06:08;;;;;;;2.60;1.60;;;;;;;25.42;100.00;96299.03;5030213;28;20202;-73
2023/08/14 08:08:34;;;;;;;1.75;1.23;;;;;;;25.50;100.00;96302.03;5030249;28;20205;-73
2023/08/14 08:11:00;;;;;;;5.80;1.67;;;;;;;25.64;100.00;96305.03;5030576;28;20202;-74
2023/08/14 08:13:27;;;;;;;1.77;1.13;;;;;;;26.03;100.00;96305.06;5030199;28;20222;-73
2023/08/14 08:15:55;;;;;;;2.25;1.33;;;;;;;26.22;100.00;96311.53;5026800;28;20715;-74
2023/08/14 08:18:22;;;;;;;2.88;1.23;;;;;;;26.16;100.00;96323.44;5015510;28;20225;-73
2023/08/14 08:20:49;;;;;;;2.40;1.23;;;;;;;26.18;100.00;96315.84;5016605;28;20217;-74
2023/08/14 08:23:15;;;;;;;1.55;1.08;;;;;;;26.01;100.00;96311.81;5015976;28;20217;-73
2023/08/14 08:25:42;;;;;;;4.45;1.35;;;;;;;26.00;100.00;96321.00;5015494;28;20959;-73
2023/08/14 08:28:09;;;;;;;1.65;1.20;;;;;;;26.17;100.00;96324.22;5015835;28;20587;-73
2023/08/14 08:30:35;;;;;;;5.68;1.38;;;;;;;26.03;100.00;96326.69;5015297;28;20202;-74
2023/08/14 08:33:04;;;;;;;1.98;1.33;;;;;;;26.46;100.00;96318.00;5015537;28;20581;-73
2023/08/14 08:35:30;;;;;;;2.53;1.48;;;;;;;26.43;100.00;96311.25;5015360;28;20229;-74
2023/08/14 08:37:57;;;;;;;2.17;1.30;;;;;;;26.36;100.00;96314.50;5015331;28;20316;-74
2023/08/14 08:40:24;;;;;;;1.10;1.00;;;;;;;26.67;100.00;96320.38;5014742;28;20205;-74
2023/08/14 08:42:52;;;;;;;1.92;1.38;;;;;;;26.81;100.00;96304.41;5015385;28;20202;-73
2023/08/14 08:45:23;;;;;;;1.77;1.20;;;;;;;26.76;100.00;96301.72;5012183;28;20225;-74
2023/08/14 08:47:52;;;;;;;2.38;1.52;;;;;;;26.97;100.00;96304.06;5014254;28;20355;-73
2023/08/14 08:50:20;;;;;;;3.25;1.85;;;;;;;27.04;100.00;96309.16;5015092;28;20206;-74
2023/08/14 08:52:47;;;;;;;1.88;1.13;;;;;;;26.88;100.00;96303.00;5014987;28;20206;-73
2023/08/14 08:55:14;;;;;;;2.28;1.58;;;;;;;26.90;100.00;96305.44;5014067;28;20230;-74
2023/08/14 08:57:42;;;;;;;2.25;1.35;;;;;;;26.93;100.00;96302.16;5014697;28;20580;-74
2023/08/14 09:00:10;;;;;;;2.83;2.00;;;;;;;27.04;100.00;96303.75;5014483;28;20210;-74
2023/08/14 09:02:36;;;;;;;5.00;1.58;;;;;;;27.14;100.00;96297.22;5014632;28;20289;-74
2023/08/14 09:05:04;;;;;;;2.97;1.48;;;;;;;27.21;100.00;96302.34;5012738;28;20768;-74
2023/08/14 09:07:32;;;;;;;3.88;1.48;;;;;;;27.29;100.00;96291.75;5014730;28;20559;-74
2023/08/14 09:10:00;;;;;;;4.07;1.58;;;;;;;27.27;100.00;96293.91;5013297;28;21133;-73
2023/08/14 09:12:26;;;;;;;3.10;1.77;;;;;;;27.59;100.00;96301.59;5014462;28;20669;-74
2023/08/14 09:15:05;;;;;;;2.58;1.50;;;;;;;28.07;100.00;96305.00;5012806;28;20222;-73
2023/08/14 09:17:31;;;;;;;2.08;1.15;;;;;;;27.71;100.00;96314.50;5014406;28;20229;-73
2023/08/14 09:19:58;;;;;;;1.92;1.63;;;;;;;27.47;100.00;96315.44;5014175;28;20206;-74
2023/08/14 09:22:27;;;;;;;2.17;1.27;;;;;;;27.39;100.00;96318.75;5015076;28;20206;-74
2023/08/14 09:24:56;;;;;;;2.05;1.00;;;;;;;27.44;100.00;96315.19;5013636;28;20233;-74
2023/08/14 09:27:23;;;;;;;6.45;1.40;;;;;;;27.76;100.00;96324.47;5014417;28;20198;-74
2023/08/14 09:29:51;;;;;;;24.10;1.95;;;;;;;27.81;100.00;96316.31;5014226;28;20228;-73
2023/08/14 09:32:23;;;;;;;1.80;1.30;;;;;;;27.82;100.00;96320.66;5014683;28;20209;-74
2023/08/14 09:34:57;;;;;;;1.85;1.10;;;;;;;27.61;100.00;96313.78;5013310;28;20226;-74
2023/08/14 09:37:24;;;;;;;2.40;1.40;;;;;;;27.62;100.00;96309.16;5014009;28;20217;-73
2023/08/14 09:40:10;;;;;;;2.17;1.30;;;;;;;28.36;100.00;96312.09;5014403;28;21155;-73
2023/08/14 09:42:37;;;;;;;2.60;1.30;;;;;;;28.36;100.00;96306.66;5014025;28;20289;-74
2023/08/14 09:45:04;;;;;;;1.73;1.38;;;;;;;28.32;100.00;96304.00;5012667;28;20237;-74
2023/08/14 09:47:31;;;;;;;2.05;1.10;;;;;;;28.46;99.67;96313.88;5014136;28;20221;-74
2023/08/14 09:49:59;;;;;;;1.45;0.98;;;;;;;28.29;100.00;96316.22;5013363;28;20198;-74
2023/08/14 09:52:25;;;;;;;2.03;1.00;;;;;;;28.44;98.38;96316.88;5013707;28;20202;-74
2023/08/14 09:54:53;;;;;;;2.08;1.25;;;;;;;28.46;91.08;96313.88;5013414;28;20240;-73
2023/08/14 09:57:23;;;;;;;1.90;0.95;;;;;;;28.38;98.51;96306.38;5013543;28;20621;-74
2023/08/14 09:59:50;;;;;;;1.42;1.33;;;;;;;28.29;94.99;96310.78;5013639;28;20221;-74
2023/08/14 10:02:18;;;;;;;1.58;1.17;;;;;;;28.44;100.00;96305.22;5013185;28;20819;-74
2023/08/14 10:04:47;;;;;;;1.60;0.90;;;;;;;28.54;97.08;96300.50;5013186;28;20229;-73
2023/08/14 10:07:15;;;;;;;1.98;1.23;;;;;;;28.44;95.64;96297.91;5013263;28;20217;-72
2023/08/14 10:09:44;;;;;;;2.58;1.30;;;;;;;28.39;96.90;96300.66;5013745;28;20206;-73
2023/08/14 10:12:13;;;;;;;1.60;1.30;;;;;;;28.35;94.75;96296.91;5013779;28;20202;-72
2023/08/14 10:14:45;;;;;;;4.30;1.23;;;;;;;28.06;100.00;96302.59;5012639;28;20765;-73
2023/08/14 10:17:25;;;;;;;2.05;1.35;;;;;;;28.10;100.00;96292.78;5013415;28;20228;-72
2023/08/14 10:19:54;;;;;;;3.25;1.45;;;;;;;28.13;100.00;96297.63;5012464;28;20209;-72
2023/08/14 10:22:21;;;;;;;1.58;1.10;;;;;;;28.11;95.12;96294.41;5013773;28;20244;-72
2023/08/14 10:24:49;;;;;;;1.63;0.90;;;;;;;27.99;93.48;96291.25;5013427;28;20502;-72
2023/08/14 10:27:16;;;;;;;1.90;1.20;;;;;;;28.09;97.82;96286.53;5015322;28;20738;-72
2023/08/14 10:29:45;;;;;;;1.05;0.82;;;;;;;28.41;98.18;96276.78;5017651;28;20206;-73
2023/08/14 10:32:12;;;;;;;1.58;1.10;;;;;;;28.34;99.98;96284.44;5017392;28;20937;-72
2023/08/14 10:34:39;;;;;;;1.52;1.10;;;;;;;28.57;96.86;96275.50;5017113;28;20253;-73
2023/08/14 10:37:06;;;;;;;2.72;1.30;;;;;;;28.93;92.47;96278.66;5016675;28;20221;-72
2023/08/14 10:39:34;;;;;;;2.05;1.05;;;;;;;29.35;93.10;96274.84;5017721;28;20202;-72
2023/08/14 10:42:01;;;;;;;1.17;0.80;;;;;;;29.65;81.56;96272.50;5016963;28;20268;-74
2023/08/14 10:44:32;;;;;;;1.52;1.00;;;;;;;29.45;78.86;96277.41;5016984;28;20225;-74
2023/08/14 10:47:06;;;;;;;4.03;1.02;;;;;;;29.55;79.74;96276.47;5016667;28;20650;-74
2023/08/14 10:49:42;;;;;;;1.38;0.85;;;;;;;29.52;81.88;96275.16;5017490;28;21041;-74
2023/08/14 10:52:09;;;;;;;2.10;1.00;;;;;;;29.62;80.58;96264.13;5016653;28;20236;-74
2023/08/14 10:54:37;;;;;;;1.27;1.05;;;;;;;29.66;81.22;96271.41;5016445;28;21314;-74
2023/08/14 10:57:10;;;;;;;1.40;0.90;;;;;;;29.88;80.30;96263.47;5016732;28;20238;-74
2023/08/14 10:59:37;;;;;;;1.77;1.20;;;;;;;30.06;80.46;96269.97;5016692;28;20222;-74
2023/08/14 11:02:14;;;;;;;1.77;1.42;;;;;;;30.86;78.91;96259.22;5016153;28;20217;-74
2023/08/14 11:04:41;;;;;;;1.70;1.10;;;;;;;30.36;74.41;96264.81;5016388;28;21012;-74
2023/08/14 11:07:12;;;;;;;1.02;0.85;;;;;;;30.47;74.09;96263.53;5017419;28;20205;-74
2023/08/14 11:09:39;;;;;;;2.58;1.10;;;;;;;30.47;74.69;96260.81;5016232;28;20217;-74
2023/08/14 11:12:08;;;;;;;1.08;0.88;;;;;;;29.91;79.15;96262.06;5016680;28;20194;-74
2023/08/14 11:14:40;;;;;;;1.17;1.00;;;;;;;29.90;84.33;96261.28;5016351;28;20339;-74
2023/08/14 11:17:09;;;;;;;1.83;1.02;;;;;;;29.58;83.01;96259.59;5016333;28;20217;-74
2023/08/14 11:19:36;;;;;;;1.15;0.90;;;;;;;29.52;85.18;96264.28;5016255;28;20225;-74
2023/08/14 11:22:03;;;;;;;1.42;0.98;;;;;;;29.54;86.30;96262.06;5016083;28;20194;-74
2023/08/14 11:24:32;;;;;;;1.52;0.90;;;;;;;29.54;85.22;96262.06;5015466;28;20226;-74
2023/08/14 11:26:59;;;;;;;1.70;1.13;;;;;;;29.64;88.55;96260.00;5015759;28;20193;-74
2023/08/14 11:29:26;;;;;;;1.92;1.25;;;;;;;29.68;91.99;96254.78;5016407;28;20213;-74